createdAt,value
2016-11-08T00:00:04.408Z,2.7
2016-11-08T00:05:04.717Z,2.7
2016-11-08T00:10:04.719Z,2.7
2016-11-08T00:15:03.837Z,2.7
2016-11-08T00:20:04.322Z,2.7
2016-11-08T00:25:04.018Z,2.9
2016-11-08T00:30:04.666Z,2.7
2016-11-08T00:35:04.514Z,2.9
2016-11-08T00:40:04.781Z,2.7
2016-11-08T00:45:04.468Z,2.7
2016-11-08T00:50:04.960Z,2.7
2016-11-08T00:55:04.410Z,2.7
2016-11-08T01:00:03.761Z,2.7
2016-11-08T01:05:04.149Z,2.9
2016-11-08T01:10:04.037Z,2.9
2016-11-08T01:15:04.448Z,2.9
2016-11-08T01:20:03.936Z,2.7
2016-11-08T01:25:04.401Z,2.7
2016-11-08T01:30:04.675Z,2.9
2016-11-08T01:35:04.019Z,2.9
2016-11-08T01:40:04.353Z,2.9
2016-11-08T01:45:04.142Z,2.7
2016-11-08T01:50:04.625Z,2.7
2016-11-08T01:55:04.591Z,2.7
2016-11-08T02:00:04.085Z,2.7
2016-11-08T02:05:04.414Z,2.9
2016-11-08T02:10:04.326Z,2.9
2016-11-08T02:15:04.683Z,2.9
2016-11-08T02:20:04.265Z,2.7
2016-11-08T02:25:04.049Z,2.7
2016-11-08T02:30:04.789Z,2.7
2016-11-08T02:35:03.847Z,2.9
2016-11-08T02:40:04.156Z,2.7
2016-11-08T02:45:05.002Z,2.7
2016-11-08T02:50:03.793Z,2.7
2016-11-08T02:55:04.050Z,2.5
2016-11-08T03:00:04.792Z,2.5
2016-11-08T03:05:09.499Z,2.5
2016-11-08T03:10:03.820Z,2.5
2016-11-08T03:15:04.202Z,2.5
2016-11-08T03:20:03.924Z,2.7
2016-11-08T03:25:04.502Z,2.7
2016-11-08T03:30:04.390Z,2.7
2016-11-08T03:35:04.446Z,2.5
2016-11-08T03:40:03.852Z,2.4
2016-11-08T03:45:03.914Z,2.4
2016-11-08T03:50:04.686Z,2.5
2016-11-08T03:55:04.727Z,2.5
2016-11-08T04:00:04.346Z,2.5
2016-11-08T04:05:07.847Z,2.5
2016-11-08T04:10:04.307Z,2.5
2016-11-08T04:15:03.920Z,2.5
2016-11-08T04:20:03.866Z,2.5
2016-11-08T04:25:04.236Z,2.5
2016-11-08T04:30:05.012Z,2.7
2016-11-08T04:35:03.842Z,2.5
2016-11-08T04:40:04.455Z,2.4
2016-11-08T04:45:04.147Z,2.5
2016-11-08T04:50:04.031Z,2.5
2016-11-08T04:55:03.809Z,2.7
2016-11-08T05:00:03.727Z,2.7
2016-11-08T05:05:04.448Z,2.7
2016-11-08T05:10:04.274Z,2.5
2016-11-08T05:15:03.893Z,2.5
2016-11-08T05:20:04.542Z,2.5
2016-11-08T05:25:03.816Z,2.5
2016-11-08T05:30:04.435Z,2.4
2016-11-08T05:35:04.703Z,2.4
2016-11-08T05:40:03.792Z,2.5
2016-11-08T05:45:04.048Z,2.7
2016-11-08T05:50:04.630Z,2.7
2016-11-08T05:55:03.996Z,2.5
2016-11-08T06:00:04.256Z,2.5
2016-11-08T06:05:04.536Z,2.2
2016-11-08T06:10:04.158Z,1.7
2016-11-08T06:15:03.884Z,1.8
2016-11-08T06:20:04.488Z,2.2
2016-11-08T06:25:04.304Z,2.4
2016-11-08T06:30:03.908Z,2.4
2016-11-08T06:35:04.096Z,2.4
2016-11-08T06:40:03.805Z,2.4
2016-11-08T06:45:04.472Z,2.4
2016-11-08T06:50:04.022Z,2.5
2016-11-08T06:55:04.508Z,2.4
2016-11-08T07:00:04.532Z,2.5
2016-11-08T07:05:04.423Z,2.0
2016-11-08T07:10:04.407Z,2.4
2016-11-08T07:15:04.503Z,2.5
2016-11-08T07:20:04.219Z,2.7
2016-11-08T07:25:03.799Z,2.9
2016-11-08T07:30:04.616Z,3.0
2016-11-08T07:35:04.187Z,3.0
2016-11-08T07:40:04.728Z,2.9
2016-11-08T07:45:04.103Z,3.0
2016-11-08T07:50:04.665Z,3.0
2016-11-08T07:55:04.080Z,2.9
2016-11-08T08:00:05.287Z,3.0
2016-11-08T08:05:04.190Z,2.9
2016-11-08T08:10:03.846Z,3.0
2016-11-08T08:15:04.187Z,3.0
2016-11-08T08:20:04.637Z,2.9
2016-11-08T08:25:04.505Z,3.0
2016-11-08T08:30:03.999Z,3.0
2016-11-08T08:35:03.984Z,3.0
2016-11-08T08:40:03.911Z,2.9
2016-11-08T08:45:04.542Z,3.0
2016-11-08T08:50:04.192Z,3.0
2016-11-08T08:55:04.617Z,2.5
2016-11-08T09:00:03.912Z,2.5
2016-11-08T09:05:04.611Z,3.0
2016-11-08T09:10:04.659Z,3.0
2016-11-08T09:15:04.822Z,2.9
2016-11-08T09:20:04.177Z,2.9
2016-11-08T09:25:04.481Z,3.0
2016-11-08T09:30:04.737Z,3.0
2016-11-08T09:35:04.022Z,3.2
2016-11-08T09:40:04.181Z,3.5
2016-11-08T09:45:03.837Z,3.7
2016-11-08T09:50:04.604Z,3.7
2016-11-08T09:55:04.157Z,5.3
2016-11-08T10:00:04.747Z,4.0
2016-11-08T10:05:04.197Z,4.3
2016-11-08T10:10:04.429Z,4.5
2016-11-08T10:15:04.813Z,4.0
2016-11-08T10:20:04.172Z,3.7
2016-11-08T10:25:04.518Z,4.0
2016-11-08T10:30:04.103Z,4.0
2016-11-08T10:35:03.853Z,4.5
2016-11-08T10:40:04.681Z,3.7
2016-11-08T10:45:04.471Z,4.0
2016-11-08T10:50:04.645Z,4.5
2016-11-08T10:55:03.764Z,5.0
2016-11-08T11:00:04.108Z,5.4
2016-11-08T11:05:04.588Z,5.0
2016-11-08T11:10:03.896Z,5.0
2016-11-08T11:15:04.833Z,5.0
2016-11-08T11:20:04.386Z,4.8
2016-11-08T11:25:04.356Z,4.8
2016-11-08T11:30:03.759Z,5.0
2016-11-08T11:35:03.973Z,5.0
2016-11-08T11:40:03.915Z,5.4
2016-11-08T11:45:04.453Z,5.4
2016-11-08T11:50:04.401Z,5.8
2016-11-08T11:55:04.230Z,5.3
2016-11-08T12:00:04.634Z,4.5
2016-11-08T12:05:04.234Z,5.0
2016-11-08T12:10:04.137Z,5.4
2016-11-08T12:15:04.574Z,5.3
2016-11-08T12:20:04.939Z,5.8
2016-11-08T12:25:04.314Z,6.4
2016-11-08T12:30:04.042Z,6.0
2016-11-08T12:35:03.726Z,5.8
2016-11-08T12:40:04.241Z,5.3
2016-11-08T12:45:04.095Z,5.0
2016-11-08T12:50:04.324Z,5.0
2016-11-08T12:55:04.787Z,5.0
2016-11-08T13:00:04.287Z,5.3
2016-11-08T13:05:03.908Z,5.0
2016-11-08T13:10:04.357Z,5.0
2016-11-08T13:15:04.815Z,4.8
2016-11-08T13:20:04.182Z,4.5
2016-11-08T13:25:04.665Z,4.5
2016-11-08T13:30:04.416Z,4.8
2016-11-08T13:35:04.715Z,4.5
2016-11-08T13:40:03.691Z,4.5
2016-11-08T13:45:04.356Z,4.5
2016-11-08T13:50:04.433Z,4.5
2016-11-08T13:55:04.310Z,4.5
2016-11-08T14:00:04.401Z,4.3
2016-11-08T14:05:04.713Z,4.5
2016-11-08T14:10:04.830Z,5.3
2016-11-08T14:15:04.755Z,5.4
2016-11-08T14:20:04.888Z,5.5
2016-11-08T14:25:04.043Z,5.0
2016-11-08T14:30:04.718Z,5.3
2016-11-08T14:35:04.199Z,5.3
2016-11-08T14:40:04.777Z,4.3
2016-11-08T14:45:04.400Z,4.3
2016-11-08T14:50:04.448Z,4.0
2016-11-08T14:55:04.495Z,3.7
2016-11-08T15:00:04.294Z,4.0
2016-11-08T15:05:04.668Z,4.0
2016-11-08T15:10:04.496Z,4.0
2016-11-08T15:15:04.599Z,4.0
2016-11-08T15:20:04.802Z,4.0
2016-11-08T15:25:04.819Z,4.0
2016-11-08T15:30:04.831Z,4.0
2016-11-08T15:35:03.898Z,4.0
2016-11-08T15:40:04.449Z,4.0
2016-11-08T15:45:04.646Z,4.0
2016-11-08T15:50:04.552Z,3.5
2016-11-08T15:55:04.648Z,3.2
2016-11-08T16:00:04.718Z,3.2
2016-11-08T16:05:04.225Z,3.2
2016-11-08T16:10:04.399Z,3.2
2016-11-08T16:15:04.689Z,3.5
2016-11-08T16:20:03.734Z,3.7
2016-11-08T16:25:04.453Z,3.2
2016-11-08T16:30:04.741Z,3.2
2016-11-08T16:35:03.946Z,2.9
2016-11-08T16:40:04.710Z,2.7
2016-11-08T16:45:04.264Z,2.7
2016-11-08T16:50:04.496Z,2.5
2016-11-08T16:55:04.171Z,2.4
2016-11-08T17:00:04.281Z,2.2
2016-11-08T17:05:04.047Z,2.2
2016-11-08T17:10:03.906Z,2.0
2016-11-08T17:15:04.705Z,2.0
2016-11-08T17:20:04.557Z,2.0
2016-11-08T17:25:04.538Z,2.0
2016-11-08T17:30:04.126Z,2.0
2016-11-08T17:35:04.320Z,2.0
2016-11-08T17:40:04.426Z,1.8
2016-11-08T17:45:03.932Z,1.8
2016-11-08T17:50:03.944Z,1.8
2016-11-08T17:55:04.500Z,1.8
2016-11-08T18:00:04.494Z,1.8
2016-11-08T18:05:04.202Z,1.8
2016-11-08T18:10:03.824Z,1.8
2016-11-08T18:15:04.009Z,2.0
2016-11-08T18:20:03.985Z,2.2
2016-11-08T18:25:04.383Z,2.2
2016-11-08T18:30:04.776Z,2.2
2016-11-08T18:35:04.786Z,2.2
2016-11-08T18:40:04.355Z,2.2
2016-11-08T18:45:04.350Z,2.2
2016-11-08T18:50:03.966Z,2.2
2016-11-08T18:55:04.483Z,2.2
2016-11-08T19:00:04.783Z,2.0
2016-11-08T19:05:04.013Z,2.0
2016-11-08T19:10:04.721Z,2.2
2016-11-08T19:15:04.838Z,2.2
2016-11-08T19:20:04.017Z,2.2
2016-11-08T19:25:03.920Z,2.2
2016-11-08T19:30:04.652Z,2.0
2016-11-08T19:35:04.775Z,2.0
2016-11-08T19:40:03.836Z,2.0
2016-11-08T19:45:04.003Z,2.0
2016-11-08T19:50:04.237Z,2.2
2016-11-08T19:55:04.611Z,2.0
2016-11-08T20:00:04.466Z,2.2
2016-11-08T20:05:03.924Z,2.4
2016-11-08T20:10:04.189Z,2.4
2016-11-08T20:15:04.129Z,2.4
2016-11-08T20:20:04.477Z,2.2
2016-11-08T20:25:04.718Z,2.2
2016-11-08T20:30:04.254Z,2.2
2016-11-08T20:35:04.615Z,2.4
2016-11-08T20:40:04.458Z,2.2
2016-11-08T20:45:04.628Z,2.2
2016-11-08T20:50:04.565Z,2.0
2016-11-08T20:55:04.170Z,2.0
2016-11-08T21:00:04.316Z,1.7
2016-11-08T21:05:04.242Z,1.8
2016-11-08T21:10:04.222Z,1.8
2016-11-08T21:15:04.363Z,1.8
2016-11-08T21:20:04.321Z,2.0
2016-11-08T21:25:04.544Z,2.0
2016-11-08T21:30:04.660Z,2.2
2016-11-08T21:35:04.702Z,2.4
2016-11-08T21:40:04.019Z,2.4
2016-11-08T21:45:04.419Z,2.4
2016-11-08T21:50:04.364Z,2.4
2016-11-08T21:55:04.063Z,2.4
2016-11-08T22:00:04.457Z,2.4
2016-11-08T22:05:04.269Z,2.5
2016-11-08T22:10:03.756Z,2.5
2016-11-08T22:15:03.776Z,2.5
2016-11-08T22:20:04.053Z,2.5
2016-11-08T22:25:03.937Z,2.5
2016-11-08T22:30:04.259Z,2.7
2016-11-08T22:35:04.318Z,2.5
2016-11-08T22:40:04.793Z,2.5
2016-11-08T22:45:04.203Z,2.7
2016-11-08T22:50:04.099Z,2.7
2016-11-08T22:55:03.984Z,2.7
2016-11-08T23:00:03.897Z,2.7
2016-11-08T23:05:04.344Z,2.7
2016-11-08T23:10:04.543Z,2.7
2016-11-08T23:15:04.760Z,2.7
2016-11-08T23:20:03.924Z,2.7
2016-11-08T23:25:03.756Z,2.7
2016-11-08T23:30:04.666Z,2.7
2016-11-08T23:35:04.840Z,2.7
2016-11-08T23:40:03.970Z,2.7
2016-11-08T23:45:04.109Z,2.7
2016-11-08T23:50:03.963Z,2.7
2016-11-08T23:55:04.831Z,2.7
